WeatherOLA & Area Weather Station Summaries and History

Weather history for Indianola, Kingston, Poulsbo, Bainbridge Island, Silverdale other area weather stations. Select a station for detailed historical weather information of any date and time in five minute intervals. Great for looking up the timing of interesting weather events that are closest to you.

Station Historical Data
 
Daily Summary for October 23, 2017 Units:  English    Metric   Both
« Previous Day
Next Day »
Daily Weekly Monthly Yearly Custom
  Current: High: Low: Average:
Temperature: 63.7 °F 63.7 °F 48.6 °F 52.5 °F
Dew Point: 52.3 °F 53.4 °F 47.1 °F 49.6 °F
Humidity: 67% 95% 67% 91%
Wind Speed: 0mph 2.3mph 0mph 0.3mph
Wind Gust: 0mph 2.3mph - -
WindCalm - - ESE
Pressure: 30.6 in 30.6 in 30.4 in -
Precipitation: 0 in      
Historical Graphs
 
 
Tabular Data for October 23, 2017
Time Temperature Dew Point Pressure Wind Wind Speed Wind Gust Humidity Rainfall Rate (Hourly) solar Conditions
00:03 49.5 °F 48 °F 30.4 in Calm     95% 0 in WeatherDisplay:10.37 W/m2 RA
00:08 49.5 °F 48 °F 30.4 in Calm     95% 0 in WeatherDisplay:10.37 W/m2 RA
00:13 49.5 °F 48 °F 30.4 in Calm     95% 0 in WeatherDisplay:10.37 W/m2 CLR
00:18 49.5 °F 48 °F 30.4 in Calm     95% 0 in WeatherDisplay:10.37 W/m2 CLR
00:23 49.5 °F 48 °F 30.4 in Calm     95% 0 in WeatherDisplay:10.37 W/m2 CLR
00:28 49.5 °F 48 °F 30.4 in Calm     95% 0 in WeatherDisplay:10.37 W/m2 CLR
00:33 49.3 °F 47.8 °F 30.4 in Calm     95% 0 in WeatherDisplay:10.37 W/m2 CLR
00:38 49.1 °F 47.7 °F 30.4 in Calm     95% 0 in WeatherDisplay:10.37 W/m2 CLR
00:43 48.9 °F 47.7 °F 30.5 in Calm     95% 0 in WeatherDisplay:10.37 W/m2 CLR
00:48 48.9 °F 47.5 °F 30.5 in Calm     95% 0 in WeatherDisplay:10.37 W/m2 CLR
00:53 48.7 °F 47.5 °F 30.5 in Calm     95% 0 in WeatherDisplay:10.37 W/m2 CLR
00:58 48.7 °F 47.5 °F 30.5 in Calm     95% 0 in WeatherDisplay:10.37 W/m2 CLR
01:03 48.7 °F 47.3 °F 30.5 in Calm     95% 0 in WeatherDisplay:10.37 W/m2 CLR
01:04 48.7 °F 47.3 °F 30.5 in Calm     95% 0 in WeatherDisplay:10.37 W/m2 CLR
01:09 48.6 °F 47.1 °F 30.5 in Calm     95% 0 in WeatherDisplay:10.37 W/m2 CLR
01:14 48.6 °F 47.1 °F 30.5 in Calm     95% 0 in WeatherDisplay:10.37 W/m2 CLR
01:19 48.7 °F 47.3 °F 30.5 in Calm     95% 0 in WeatherDisplay:10.37 W/m2 CLR
01:24 48.7 °F 47.3 °F 30.5 in Calm     95% 0 in WeatherDisplay:10.37 W/m2 CLR
01:29 48.6 °F 47.1 °F 30.5 in Calm     95% 0 in WeatherDisplay:10.37 W/m2 CLR
01:34 48.7 °F 47.3 °F 30.5 in Calm     95% 0 in WeatherDisplay:10.37 W/m2 CLR
01:39 48.7 °F 47.3 °F 30.5 in Calm     95% 0 in WeatherDisplay:10.37 W/m2 CLR
01:44 48.7 °F 47.5 °F 30.5 in Calm     95% 0 in WeatherDisplay:10.37 W/m2 CLR
01:49 48.7 °F 47.5 °F 30.5 in Calm     95% 0 in WeatherDisplay:10.37 W/m2 CLR
01:54 48.7 °F 47.5 °F 30.5 in Calm     95% 0 in WeatherDisplay:10.37 W/m2 CLR
01:59 48.7 °F 47.5 °F 30.5 in Calm     95% 0 in WeatherDisplay:10.37 W/m2 CLR
02:04 48.7 °F 47.5 °F 30.5 in Calm     95% 0 in WeatherDisplay:10.37 W/m2 CLR
02:09 48.7 °F 47.5 °F 30.5 in Calm     95% 0 in WeatherDisplay:10.37 W/m2 CLR
02:14 48.7 °F 47.3 °F 30.5 in Calm     95% 0 in WeatherDisplay:10.37 W/m2 CLR
02:19 48.7 °F 47.5 °F 30.5 in Calm     95% 0 in WeatherDisplay:10.37 W/m2 CLR
02:24 48.9 °F 47.5 °F 30.5 in Calm     95% 0 in WeatherDisplay:10.37 W/m2 CLR
02:29 48.9 °F 47.7 °F 30.5 in Calm     95% 0 in WeatherDisplay:10.37 W/m2 CLR
02:34 49.3 °F 47.8 °F 30.5 in Calm     95% 0 in WeatherDisplay:10.37 W/m2 CLR
02:39 49.5 °F 48 °F 30.5 in Calm     95% 0 in WeatherDisplay:10.37 W/m2 CLR
02:44 49.6 °F 48.4 °F 30.5 in Calm     95% 0 in WeatherDisplay:10.37 W/m2 CLR
02:49 49.8 °F 48.6 °F 30.5 in Calm     95% 0 in WeatherDisplay:10.37 W/m2 CLR
02:54 49.8 °F 48.6 °F 30.5 in Calm     95% 0 in WeatherDisplay:10.37 W/m2 CLR
02:59 50 °F 48.6 °F 30.5 in Calm     95% 0 in WeatherDisplay:10.37 W/m2 CLR
03:04 50.2 °F 48.7 °F 30.5 in Calm     95% 0 in WeatherDisplay:10.37 W/m2 CLR
03:09 50.2 °F 48.7 °F 30.5 in Calm     95% 0 in WeatherDisplay:10.37 W/m2 CLR
03:14 50.2 °F 48.7 °F 30.5 in Calm     95% 0 in WeatherDisplay:10.37 W/m2 CLR
03:19 50.2 °F 48.7 °F 30.5 in Calm     95% 0 in WeatherDisplay:10.37 W/m2 CLR
03:24 50.4 °F 48.9 °F 30.5 in Calm     95% 0 in WeatherDisplay:10.37 W/m2 CLR
03:29 50.4 °F 48.9 °F 30.5 in Calm     95% 0 in WeatherDisplay:10.37 W/m2 CLR
03:34 50.4 °F 48.9 °F 30.5 in Calm     95% 0 in WeatherDisplay:10.37 W/m2 CLR
03:39 50.4 °F 48.9 °F 30.5 in Calm     95% 0 in WeatherDisplay:10.37 W/m2 CLR
03:44 50.4 °F 48.9 °F 30.5 in Calm     95% 0 in WeatherDisplay:10.37 W/m2 CLR
03:49 50.5 °F 49.1 °F 30.5 in Calm     95% 0 in WeatherDisplay:10.37 W/m2 CLR
03:54 50.5 °F 49.1 °F 30.5 in Calm     95% 0 in WeatherDisplay:10.37 W/m2 CLR
04:04 50.5 °F 49.3 °F 30.5 in Calm     95% 0 in WeatherDisplay:10.37 W/m2 CLR
04:09 50.5 °F 49.3 °F 30.5 in Calm     95% 0 in WeatherDisplay:10.37 W/m2 CLR
04:14 50.5 °F 49.3 °F 30.5 in Calm     95% 0 in WeatherDisplay:10.37 W/m2 CLR
04:19 50.5 °F 49.3 °F 30.5 in Calm     95% 0 in WeatherDisplay:10.37 W/m2 CLR
04:24 50.5 °F 49.3 °F 30.5 in Calm     95% 0 in WeatherDisplay:10.37 W/m2 CLR
04:29 50.7 °F 49.3 °F 30.5 in ESE 1.2 mph   95% 0 in WeatherDisplay:10.37 W/m2 CLR
04:34 50.7 °F 49.3 °F 30.5 in Calm     95% 0 in WeatherDisplay:10.37 W/m2 CLR
04:39 50.7 °F 49.3 °F 30.5 in Calm     95% 0 in WeatherDisplay:10.37 W/m2 CLR
04:44 50.7 °F 49.3 °F 30.5 in Calm     95% 0 in WeatherDisplay:10.37 W/m2 CLR
04:49 50.7 °F 49.5 °F 30.5 in Calm     95% 0 in WeatherDisplay:10.37 W/m2 CLR
04:54 50.9 °F 49.5 °F 30.5 in Calm     95% 0 in WeatherDisplay:10.37 W/m2 CLR
04:59 51.1 °F 49.6 °F 30.5 in Calm     95% 0 in WeatherDisplay:10.37 W/m2 CLR
05:04 51.1 °F 49.6 °F 30.5 in Calm     95% 0 in WeatherDisplay:10.37 W/m2 CLR
05:09 51.1 °F 49.6 °F 30.5 in Calm     95% 0 in WeatherDisplay:10.37 W/m2 CLR
05:14 51.1 °F 49.6 °F 30.5 in Calm     95% 0 in WeatherDisplay:10.37 W/m2 CLR
05:19 51.1 °F 49.6 °F 30.5 in Calm     95% 0 in WeatherDisplay:10.37 W/m2 CLR
05:25 51.1 °F 49.6 °F 30.5 in Calm   0.1 mph 95% 0 in WeatherDisplay:10.37 W/m2 CLR
05:30 51.1 °F 49.6 °F 30.5 in Calm     95% 0 in WeatherDisplay:10.37 W/m2 CLR
05:35 51.1 °F 49.6 °F 30.5 in Calm     95% 0 in WeatherDisplay:10.37 W/m2 CLR
05:45 51.3 °F 49.8 °F 30.5 in Calm     95% 0 in WeatherDisplay:10.37 W/m2 CLR
05:50 51.3 °F 49.8 °F 30.5 in ESE 1.2 mph   95% 0 in WeatherDisplay:10.37 W/m2 CLR
05:55 51.3 °F 49.8 °F 30.5 in Calm     95% 0 in WeatherDisplay:10.37 W/m2 CLR
06:00 51.3 °F 49.8 °F 30.5 in Calm     95% 0 in WeatherDisplay:10.37 W/m2 CLR
06:05 51.3 °F 49.8 °F 30.5 in ESE 1.2 mph   95% 0 in WeatherDisplay:10.37 W/m2 CLR
06:10 51.3 °F 49.8 °F 30.5 in Calm     95% 0 in WeatherDisplay:10.37 W/m2 CLR
06:15 51.3 °F 49.8 °F 30.5 in Calm     95% 0 in WeatherDisplay:10.37 W/m2 CLR
06:20 51.4 °F 50 °F 30.5 in ESE 1.2 mph   95% 0 in WeatherDisplay:10.37 W/m2 CLR
06:25 51.4 °F 50 °F 30.5 in Calm     95% 0 in WeatherDisplay:10.37 W/m2 CLR
06:30 51.4 °F 50 °F 30.5 in Calm     95% 0 in WeatherDisplay:10.37 W/m2 CLR
06:35 51.4 °F 50 °F 30.6 in ESE 1.2 mph   95% 0 in WeatherDisplay:10.37 W/m2 CLR
06:40 51.3 °F 49.8 °F 30.5 in Calm   0.1 mph 95% 0 in WeatherDisplay:10.37 W/m2 CLR
06:45 51.3 °F 49.8 °F 30.5 in Calm     95% 0 in WeatherDisplay:10.37 W/m2 CLR
06:50 51.3 °F 49.8 °F 30.6 in ESE 1.2 mph   95% 0 in WeatherDisplay:10.37 W/m2 CLR
06:55 51.3 °F 49.8 °F 30.6 in ESE 1 mph   95% 0 in WeatherDisplay:10.37 W/m2 CLR
07:00 51.3 °F 49.8 °F 30.6 in Calm     95% 0 in WeatherDisplay:10.37 W/m2 CLR
07:05 51.3 °F 49.8 °F 30.6 in Calm     95% 0 in WeatherDisplay:10.37 W/m2 CLR
07:10 51.3 °F 49.8 °F 30.6 in ESE 1.2 mph   95% 0 in WeatherDisplay:10.37 W/m2 CLR
07:15 51.1 °F 49.6 °F 30.6 in Calm     95% 0 in WeatherDisplay:10.37 W/m2 CLR
07:20 51.1 °F 49.6 °F 30.6 in Calm     95% 0 in WeatherDisplay:10.37 W/m2 CLR
07:25 50.9 °F 49.5 °F 30.5 in Calm     95% 0 in WeatherDisplay:10.37 W/m2 CLR
07:30 50.7 °F 49.5 °F 30.5 in Calm     95% 0 in WeatherDisplay:10.37 W/m2 CLR
07:35 50.7 °F 49.5 °F 30.6 in Calm     95% 0 in WeatherDisplay:10.37 W/m2 CLR
07:40 50.7 °F 49.3 °F 30.6 in Calm     95% 0 in WeatherDisplay:10.37 W/m2 CLR
07:46 50.5 °F 49.3 °F 30.6 in ESE 1.2 mph   95% 0 in WeatherDisplay:10.37 W/m2 CLR
07:51 50.5 °F 49.1 °F 30.6 in Calm     95% 0 in WeatherDisplay:10.37 W/m2 CLR
07:56 50.5 °F 49.1 °F 30.6 in ESE 1.2 mph 1.2 mph 95% 0 in WeatherDisplay:10.37 W/m2 CLR
08:01 50.4 °F 48.9 °F 30.6 in Calm     95% 0 in WeatherDisplay:10.37 W/m2 CLR
08:06 50.4 °F 48.9 °F 30.6 in Calm     95% 0 in WeatherDisplay:10.37 W/m2 CLR
08:11 50.4 °F 48.9 °F 30.6 in Calm     95% 0 in WeatherDisplay:10.37 W/m2 CLR
08:16 50.2 °F 48.7 °F 30.6 in Calm     95% 0 in WeatherDisplay:10.37 W/m2 CLR
08:21 50.2 °F 48.7 °F 30.6 in Calm     95% 0 in WeatherDisplay:10.37 W/m2 CLR
08:26 50.2 °F 48.7 °F 30.6 in Calm     95% 0 in WeatherDisplay:10.37 W/m2 CLR
08:31 50.2 °F 48.7 °F 30.6 in Calm     95% 0 in WeatherDisplay:10.37 W/m2 CLR
08:36 50.2 °F 48.7 °F 30.6 in Calm     95% 0 in WeatherDisplay:10.37 W/m2 CLR
08:41 50.2 °F 48.7 °F 30.6 in Calm     95% 0 in WeatherDisplay:10.37 W/m2 CLR
08:46 50.4 °F 48.9 °F 30.6 in Calm     95% 0 in WeatherDisplay:10.37 W/m2 CLR
08:51 50.4 °F 48.9 °F 30.6 in ESE 1.2 mph 1.2 mph 95% 0 in WeatherDisplay:10.37 W/m2 CLR
08:56 50.5 °F 49.3 °F 30.6 in Calm     95% 0 in WeatherDisplay:10.37 W/m2 CLR
09:01 50.7 °F 49.5 °F 30.6 in Calm     95% 0 in WeatherDisplay:10.37 W/m2 CLR
09:06 51.1 °F 49.6 °F 30.6 in Calm     95% 0 in WeatherDisplay:10.37 W/m2 CLR
09:11 51.3 °F 49.8 °F 30.6 in Calm     95% 0 in WeatherDisplay:10.37 W/m2 CLR
09:16 51.4 °F 50 °F 30.6 in Calm     95% 0 in WeatherDisplay:10.37 W/m2 CLR
09:21 51.4 °F 50 °F 30.6 in ESE 1.2 mph   95% 0 in WeatherDisplay:10.37 W/m2 CLR
09:26 51.6 °F 50.2 °F 30.6 in Calm     95% 0 in WeatherDisplay:10.37 W/m2 CLR
09:31 51.6 °F 50.4 °F 30.6 in Calm     95% 0 in WeatherDisplay:10.37 W/m2 CLR
09:36 51.6 °F 50.4 °F 30.6 in Calm     95% 0 in WeatherDisplay:10.37 W/m2 CLR
09:41 51.6 °F 50.4 °F 30.6 in ESE 1.2 mph   95% 0 in WeatherDisplay:10.37 W/m2 CLR
09:46 51.6 °F 50.4 °F 30.6 in Calm     95% 0 in WeatherDisplay:10.37 W/m2 CLR
09:51 51.6 °F 50.4 °F 30.6 in ESE 1.2 mph 1.2 mph 95% 0 in WeatherDisplay:10.37 W/m2 CLR
09:56 51.8 °F 50.2 °F 30.6 in Calm     94% 0 in WeatherDisplay:10.37 W/m2 CLR
10:01 52 °F 50.2 °F 30.6 in Calm     94% 0 in WeatherDisplay:10.37 W/m2 CLR
10:06 52.2 °F 50.2 °F 30.6 in Calm     93% 0 in WeatherDisplay:10.37 W/m2 CLR
10:11 52.3 °F 50.4 °F 30.6 in Calm     93% 0 in WeatherDisplay:10.37 W/m2 CLR
10:16 52.5 °F 49.8 °F 30.6 in NNW 1.2 mph   91% 0 in WeatherDisplay:10.37 W/m2 CLR
10:21 52.9 °F 49.6 °F 30.6 in Calm     89% 0 in WeatherDisplay:10.37 W/m2 CLR
10:26 53.1 °F 49.6 °F 30.6 in NNE 2.3 mph   88% 0 in WeatherDisplay:10.37 W/m2 CLR
10:31 53.2 °F 49.8 °F 30.6 in Calm     88% 0 in WeatherDisplay:10.37 W/m2 CLR
10:36 53.4 °F 50 °F 30.6 in Calm     88% 0 in WeatherDisplay:10.37 W/m2 CLR
10:41 53.8 °F 50.2 °F 30.6 in NE 1.2 mph 1.2 mph 88% 0 in WeatherDisplay:10.37 W/m2 CLR
10:46 54 °F 50.4 °F 30.6 in Calm   0.1 mph 88% 0 in WeatherDisplay:10.37 W/m2 CLR
10:51 54 °F 50.2 °F 30.6 in NE 1.2 mph   87% 0 in WeatherDisplay:10.37 W/m2 CLR
10:56 54.1 °F 50.4 °F 30.6 in Calm     87% 0 in WeatherDisplay:10.37 W/m2 CLR
11:01 54.3 °F 50.5 °F 30.6 in NE 1.2 mph   87% 0 in WeatherDisplay:10.37 W/m2 CLR
11:06 54.5 °F 50.4 °F 30.6 in Calm     86% 0 in WeatherDisplay:10.37 W/m2 CLR
11:11 54.7 °F 50.4 °F 30.6 in Calm     85% 0 in WeatherDisplay:10.37 W/m2 CLR
11:21 55.2 °F 51.1 °F 30.6 in Calm     86% 0 in WeatherDisplay:10.37 W/m2 CLR
11:26 55.6 °F 50.7 °F 30.6 in Calm     84% 0 in WeatherDisplay:10.37 W/m2 CLR
11:31 55.8 °F 51.3 °F 30.6 in Calm     85% 0 in WeatherDisplay:10.37 W/m2 CLR
11:36 55.8 °F 51.4 °F 30.6 in Calm     85% 0 in WeatherDisplay:10.37 W/m2 CLR
11:41 55.9 °F 51.6 °F 30.6 in Calm     85% 0 in WeatherDisplay:10.37 W/m2 CLR
11:46 56.5 °F 51.6 °F 30.6 in Calm     84% 0 in WeatherDisplay:10.37 W/m2 CLR
11:51 56.7 °F 51.6 °F 30.6 in NE 1 mph   83% 0 in WeatherDisplay:10.37 W/m2 CLR
11:56 57 °F 52 °F 30.6 in NE 1 mph 1 mph 83% 0 in WeatherDisplay:10.37 W/m2 CLR
12:01 57.7 °F 52.2 °F 30.6 in Calm     82% 0 in WeatherDisplay:10.37 W/m2 CLR
12:06 58.6 °F 52.5 °F 30.6 in NE 1.2 mph 1.2 mph 80% 0 in WeatherDisplay:10.37 W/m2 CLR
12:11 59.4 °F 52.3 °F 30.6 in East 1.2 mph   78% 0 in WeatherDisplay:10.37 W/m2 CLR
12:16 59.7 °F 52.5 °F 30.6 in East 2.3 mph 2.3 mph 77% 0 in WeatherDisplay:10.37 W/m2 CLR
12:21 60.1 °F 52.2 °F 30.6 in East 1 mph 1 mph 75% 0 in WeatherDisplay:10.37 W/m2 CLR
12:26 60.4 °F 52.3 °F 30.6 in East 1 mph 1 mph 75% 0 in WeatherDisplay:10.37 W/m2 CLR
12:31 60.4 °F 52.2 °F 30.6 in NE 2.3 mph   74% 0 in WeatherDisplay:10.37 W/m2 CLR
12:36 60.6 °F 52.7 °F 30.6 in Calm     75% 0 in WeatherDisplay:10.37 W/m2 CLR
12:41 60.8 °F 52.2 °F 30.6 in Calm   0.3 mph 73% 0 in WeatherDisplay:10.37 W/m2 CLR
12:46 61.2 °F 52.3 °F 30.6 in Calm   0.4 mph 73% 0 in WeatherDisplay:10.37 W/m2 CLR
12:51 61.5 °F 52 °F 30.6 in ESE 2.3 mph   71% 0 in WeatherDisplay:10.37 W/m2 CLR
12:56 61.7 °F 52.2 °F 30.6 in NNW 1.2 mph 1.2 mph 71% 0 in WeatherDisplay:10.37 W/m2 CLR
13:01 62.1 °F 52.2 °F 30.6 in NE 2.3 mph 2.3 mph 70% 0 in WeatherDisplay:10.37 W/m2 CLR
13:06 62.1 °F 52.5 °F 30.6 in Calm     71% 0 in WeatherDisplay:10.37 W/m2 CLR
13:11 62.2 °F 53.1 °F 30.6 in Calm     72% 0 in WeatherDisplay:10.37 W/m2 CLR
13:16 62.4 °F 52.2 °F 30.6 in WSW 2.3 mph 2.3 mph 69% 0 in WeatherDisplay:10.37 W/m2 CLR
13:21 63 °F 53.1 °F 30.6 in East 2.3 mph 2.3 mph 70% 0 in WeatherDisplay:10.37 W/m2 CLR
13:26 63.3 °F 53.1 °F 30.6 in NE 1.2 mph 1.2 mph 69% 0 in WeatherDisplay:10.37 W/m2 CLR
13:32 63.7 °F 52.3 °F 30.6 in West 1.2 mph 1.2 mph 67% 0 in WeatherDisplay:10.37 W/m2 CLR
13:37 63.3 °F 53.4 °F 30.6 in West 1.2 mph   70% 0 in WeatherDisplay:10.37 W/m2 CLR
13:42 63.1 °F 52.2 °F 30.6 in West 2.3 mph 2.3 mph 67% 0 in WeatherDisplay:10.37 W/m2 CLR
13:47 63.3 °F 52.2 °F 30.6 in West 1.2 mph 1.2 mph 67% 0 in WeatherDisplay:10.37 W/m2 CLR
13:52 63.7 °F 52.3 °F 30.6 in Calm     67% 0 in WeatherDisplay:10.37 W/m2 CLR
Indianola, WA, USA
Compliments of Weather Underground - 2.25 mb